Time;durP1;ratioP1;P1;durP2;ratioP2;P2;SDS_P1;SDS_P2;PMS_P1;PMS_P2;Temp;Humidity;BMP_temperature;BMP_pressure;BME280_temperature;BME280_humidity;BME280_pressure;Samples;Min_cycle;Max_cycle;Signal;HPM_P1;HPM_P2
2021/09/01 00:00:16;;;;;;;23.52;16.15;;;;;;;12.42;77.10;99790.53;2618894;47;20030;-66
2021/09/01 00:02:46;;;;;;;24.50;16.42;;;;;;;12.32;77.26;99796.09;2620404;47;20018;-66
2021/09/01 00:05:16;;;;;;;25.52;16.75;;;;;;;12.25;77.40;99797.00;2622687;54;20031;-65
2021/09/01 00:07:47;;;;;;;22.65;14.98;;;;;;;12.22;77.67;99781.44;2622335;54;20042;-66
2021/09/01 00:10:18;;;;;;;23.33;16.33;;;;;;;12.24;77.87;99787.38;2622804;54;20526;-65
2021/09/01 00:12:50;;;;;;;26.30;17.13;;;;;;;12.27;78.04;99792.34;2622757;54;20039;-65
2021/09/01 00:15:20;;;;;;;27.58;16.40;;;;;;;12.33;78.16;99789.81;2619353;54;20042;-66
2021/09/01 00:17:49;;;;;;;25.20;18.27;;;;;;;12.33;77.66;99783.69;2618308;47;20026;-66
2021/09/01 00:20:19;;;;;;;26.20;18.33;;;;;;;12.26;77.43;99788.88;2619539;39;20448;-65
2021/09/01 00:22:49;;;;;;;25.10;17.75;;;;;;;12.29;77.69;99795.66;2619113;54;20538;-66
2021/09/01 00:25:18;;;;;;;26.83;15.73;;;;;;;12.27;77.90;99795.81;2619088;54;20038;-66
2021/09/01 00:27:51;;;;;;;23.92;15.65;;;;;;;12.26;77.91;99796.81;2618544;54;20027;-66
2021/09/01 00:30:20;;;;;;;22.27;15.82;;;;;;;12.24;77.76;99800.63;2619408;39;20418;-65
2021/09/01 00:32:50;;;;;;;28.45;15.68;;;;;;;12.28;77.71;99796.63;2618286;54;20046;-67
2021/09/01 00:35:20;;;;;;;23.30;15.95;;;;;;;12.30;77.55;99798.09;2619493;54;20031;-66
2021/09/01 00:37:50;;;;;;;22.80;14.65;;;;;;;12.29;77.45;99801.78;2619683;54;20037;-67
2021/09/01 00:40:20;;;;;;;23.35;14.55;;;;;;;12.32;77.59;99801.38;2619519;39;20518;-66
2021/09/01 00:42:52;;;;;;;24.27;16.85;;;;;;;12.36;77.02;99799.19;2619165;39;20225;-66
2021/09/01 00:45:22;;;;;;;20.30;14.25;;;;;;;12.30;76.75;99799.94;2618926;39;20442;-66
2021/09/01 00:47:51;;;;;;;23.23;15.80;;;;;;;12.29;77.15;99801.78;2618543;54;20045;-66
2021/09/01 00:50:21;;;;;;;22.92;15.65;;;;;;;12.25;76.98;99797.81;2619254;39;20420;-66
2021/09/01 00:52:51;;;;;;;23.70;15.43;;;;;;;12.18;77.09;99799.53;2618202;54;20030;-66
2021/09/01 00:55:23;;;;;;;23.23;16.45;;;;;;;12.11;76.87;99803.91;2619389;39;20419;-66
2021/09/01 00:57:56;;;;;;;24.63;14.70;;;;;;;12.00;77.34;99806.97;2618787;54;20033;-65
2021/09/01 01:00:34;;;;;;;22.63;15.40;;;;;;;12.06;77.43;99807.09;2618895;39;20458;-66
2021/09/01 01:03:04;;;;;;;25.35;15.68;;;;;;;12.06;76.81;99807.09;2618569;54;20558;-66
2021/09/01 01:05:33;;;;;;;22.90;16.25;;;;;;;12.03;77.15;99803.97;2618460;54;20042;-66
2021/09/01 01:08:03;;;;;;;24.67;15.40;;;;;;;12.00;77.54;99802.50;2618315;54;20079;-66
2021/09/01 01:10:33;;;;;;;25.65;15.45;;;;;;;12.01;77.51;99804.16;2617962;47;20026;-66
2021/09/01 01:13:06;;;;;;;21.73;14.90;;;;;;;11.98;77.55;99806.31;2619069;54;20031;-66
2021/09/01 01:15:39;;;;;;;24.70;15.73;;;;;;;11.98;76.86;99807.16;2618910;47;20075;-66
2021/09/01 01:18:09;;;;;;;22.67;15.25;;;;;;;11.85;77.21;99807.75;2618894;54;20027;-66
2021/09/01 01:20:39;;;;;;;23.45;15.77;;;;;;;11.78;77.52;99808.59;2618424;54;20038;-66
2021/09/01 01:23:09;;;;;;;25.20;15.57;;;;;;;11.75;77.69;99803.63;2618555;54;20535;-66
2021/09/01 01:25:42;;;;;;;23.65;16.15;;;;;;;11.80;77.39;99807.41;2618453;54;20527;-67
2021/09/01 01:28:13;;;;;;;22.33;15.93;;;;;;;11.80;77.64;99793.34;2617505;47;20026;-66
2021/09/01 01:30:44;;;;;;;24.15;15.68;;;;;;;11.76;77.45;99792.88;2618015;46;20056;-66
2021/09/01 01:33:15;;;;;;;20.02;13.98;;;;;;;11.75;77.37;99800.97;2618386;54;20593;-66
2021/09/01 01:35:48;;;;;;;22.55;14.23;;;;;;;11.77;77.46;99802.47;2618698;54;20036;-66
2021/09/01 01:38:19;;;;;;;20.65;14.32;;;;;;;11.69;77.11;99805.16;2618382;54;20792;-66
2021/09/01 01:40:51;;;;;;;23.98;14.65;;;;;;;11.65;77.64;99807.34;2618475;54;20038;-66
2021/09/01 01:43:21;;;;;;;21.88;14.65;;;;;;;11.68;77.38;99800.06;2619287;39;20387;-66
2021/09/01 01:45:51;;;;;;;22.85;14.07;;;;;;;11.68;77.63;99802.69;2617916;47;20030;-66
2021/09/01 01:48:20;;;;;;;22.58;14.88;;;;;;;11.70;77.42;99806.81;2617439;47;20034;-66
2021/09/01 01:50:50;;;;;;;22.75;14.07;;;;;;;11.71;77.30;99807.63;2617897;50;20534;-66
2021/09/01 01:53:21;;;;;;;21.83;14.70;;;;;;;11.71;77.27;99813.75;2617706;54;20038;-66
2021/09/01 01:55:53;;;;;;;23.25;14.98;;;;;;;11.67;77.51;99809.78;2618657;54;20090;-66
2021/09/01 01:58:23;;;;;;;31.33;16.10;;;;;;;11.70;77.09;99817.41;2618346;54;20058;-66
2021/09/01 02:00:53;;;;;;;22.00;14.65;;;;;;;11.66;77.39;99811.63;2618747;54;20061;-66
2021/09/01 02:03:23;;;;;;;21.15;14.85;;;;;;;11.62;77.11;99818.28;2618725;54;20038;-66
2021/09/01 02:05:53;;;;;;;23.95;15.68;;;;;;;11.56;76.93;99816.34;2618245;54;20113;-66
2021/09/01 02:08:22;;;;;;;22.60;13.95;;;;;;;11.50;77.04;99829.44;2617162;47;20125;-66
2021/09/01 02:10:55;;;;;;;22.30;15.10;;;;;;;11.49;77.16;99822.50;2618408;54;20546;-67
2021/09/01 02:13:24;;;;;;;21.45;14.57;;;;;;;11.48;77.17;99828.78;2618280;54;20026;-67
2021/09/01 02:15:54;;;;;;;22.13;13.95;;;;;;;11.46;76.96;99826.31;2618308;54;20038;-67
2021/09/01 02:18:24;;;;;;;20.70;15.35;;;;;;;11.51;77.37;99821.34;2618132;54;20127;-67
2021/09/01 02:20:53;;;;;;;19.83;13.98;;;;;;;11.56;76.92;99823.47;2619368;39;20759;-66
2021/09/01 02:23:23;;;;;;;20.98;15.07;;;;;;;11.55;76.47;99825.28;2618821;54;20803;-66
2021/09/01 02:25:55;;;;;;;19.90;15.02;;;;;;;11.51;76.43;99823.97;2618201;39;20424;-66
2021/09/01 02:28:25;;;;;;;24.13;15.48;;;;;;;11.38;76.17;99824.50;2617167;47;20026;-66
2021/09/01 02:30:55;;;;;;;21.67;15.32;;;;;;;11.25;76.90;99821.59;2618209;54;20030;-66
2021/09/01 02:33:24;;;;;;;21.50;15.07;;;;;;;11.24;77.02;99830.56;2618110;54;20015;-66
2021/09/01 02:35:54;;;;;;;23.40;16.05;;;;;;;11.26;77.40;99831.19;2618674;39;20438;-65
2021/09/01 02:38:24;;;;;;;25.50;15.93;;;;;;;11.21;76.79;99833.53;2618347;39;20486;-66
2021/09/01 02:40:57;;;;;;;27.05;17.08;;;;;;;11.14;76.78;99837.84;2618682;54;20031;-66
2021/09/01 02:43:26;;;;;;;26.00;16.25;;;;;;;11.05;77.33;99838.88;2618490;54;20033;-66
2021/09/01 02:45:56;;;;;;;22.08;14.68;;;;;;;11.01;77.55;99845.50;2618591;54;20042;-66
2021/09/01 02:48:26;;;;;;;22.05;14.55;;;;;;;10.86;77.66;99846.22;2618370;54;20026;-66
2021/09/01 02:50:55;;;;;;;24.40;16.77;;;;;;;10.92;77.77;99850.00;2619124;39;20426;-66
2021/09/01 02:53:25;;;;;;;24.25;15.05;;;;;;;10.85;77.59;99855.13;2618851;39;20435;-66
2021/09/01 02:55:58;;;;;;;23.55;14.57;;;;;;;10.88;77.63;99848.69;2618496;54;20033;-66
2021/09/01 02:58:28;;;;;;;24.00;13.88;;;;;;;10.96;77.76;99842.56;2618248;54;20146;-66
2021/09/01 03:00:58;;;;;;;23.27;15.65;;;;;;;11.01;77.61;99850.81;2618468;54;20042;-67
2021/09/01 03:03:28;;;;;;;20.25;13.98;;;;;;;11.00;77.87;99839.41;2618378;54;20041;-66
2021/09/01 03:05:57;;;;;;;24.17;15.68;;;;;;;10.99;77.57;99840.41;2618796;54;20090;-66
2021/09/01 03:08:27;;;;;;;23.58;15.38;;;;;;;10.94;77.38;99850.66;2618673;39;20422;-65
2021/09/01 03:10:59;;;;;;;21.90;15.10;;;;;;;10.88;77.72;99846.84;2618618;54;20050;-66
2021/09/01 03:13:29;;;;;;;23.00;15.38;;;;;;;10.85;77.51;99847.19;2619032;39;20454;-65
2021/09/01 03:15:58;;;;;;;25.45;15.57;;;;;;;10.82;77.61;99846.72;2617924;47;20034;-66
2021/09/01 03:18:28;;;;;;;23.08;16.45;;;;;;;10.78;77.32;99843.59;2617730;54;20035;-65
2021/09/01 03:20:58;;;;;;;23.17;15.80;;;;;;;10.71;77.65;99847.91;2618252;54;20030;-66
2021/09/01 03:23:28;;;;;;;25.08;15.98;;;;;;;10.64;77.72;99842.44;2617820;39;20427;-65
2021/09/01 03:26:00;;;;;;;19.95;14.27;;;;;;;10.63;77.73;99842.63;2618873;39;20462;-65
2021/09/01 03:28:30;;;;;;;22.55;16.52;;;;;;;10.66;77.94;99842.28;2618521;54;20034;-65
2021/09/01 03:30:59;;;;;;;21.27;14.68;;;;;;;10.62;77.87;99840.97;2618729;54;20042;-65
2021/09/01 03:33:29;;;;;;;24.83;14.75;;;;;;;10.60;77.84;99845.59;2617932;47;20026;-65
2021/09/01 03:35:59;;;;;;;21.88;14.52;;;;;;;10.60;77.81;99841.13;2618828;39;20399;-65
2021/09/01 03:38:28;;;;;;;23.00;15.50;;;;;;;10.64;78.18;99841.63;2618082;54;20546;-65
2021/09/01 03:41:00;;;;;;;21.65;14.65;;;;;;;10.59;77.90;99847.41;2619075;39;20418;-65
2021/09/01 03:43:30;;;;;;;21.95;14.23;;;;;;;10.59;77.85;99849.22;2617968;54;20561;-65
2021/09/01 03:46:03;;;;;;;20.65;14.50;;;;;;;10.62;77.83;99852.38;2618907;54;20022;-65
2021/09/01 03:48:32;;;;;;;21.73;14.45;;;;;;;10.65;77.91;99854.69;2617865;54;20050;-65
2021/09/01 03:51:02;;;;;;;22.52;15.02;;;;;;;10.67;78.06;99851.88;2618991;54;20030;-66
2021/09/01 03:53:32;;;;;;;22.00;13.52;;;;;;;10.65;77.70;99859.13;2618609;47;20038;-67
2021/09/01 03:56:05;;;;;;;24.58;15.60;;;;;;;10.57;77.79;99857.34;2618383;47;20026;-66
2021/09/01 03:58:34;;;;;;;23.27;14.10;;;;;;;10.53;77.68;99861.31;2618540;54;20026;-65
2021/09/01 04:01:04;;;;;;;22.60;14.63;;;;;;;10.54;77.93;99864.78;2618969;54;20030;-67
2021/09/01 04:03:34;;;;;;;22.58;14.15;;;;;;;10.55;77.50;99856.66;2618929;47;20078;-64
2021/09/01 04:06:05;;;;;;;19.33;13.50;;;;;;;10.57;77.91;99852.06;2619867;39;20442;-65
2021/09/01 04:08:36;;;;;;;23.92;15.27;;;;;;;10.59;77.33;99854.53;2618200;54;20038;-66
2021/09/01 04:11:09;;;;;;;21.55;15.23;;;;;;;10.55;77.25;99869.06;2618962;54;20037;-65
2021/09/01 04:13:38;;;;;;;22.90;15.65;;;;;;;10.50;77.68;99868.75;2619029;54;20037;-66
2021/09/01 04:16:08;;;;;;;20.52;15.57;;;;;;;10.49;77.79;99869.72;2619954;47;20027;-66
2021/09/01 04:18:38;;;;;;;21.80;14.38;;;;;;;10.49;77.46;99872.34;2620925;54;20027;-65
2021/09/01 04:21:07;;;;;;;26.38;17.23;;;;;;;10.53;77.61;99866.59;2621838;54;20042;-66
2021/09/01 04:23:37;;;;;;;22.58;13.43;;;;;;;10.51;77.23;99870.38;2621652;54;20607;-65
2021/09/01 04:26:09;;;;;;;20.98;15.00;;;;;;;10.48;77.47;99873.34;2621249;54;20033;-66
2021/09/01 04:28:39;;;;;;;22.42;15.48;;;;;;;10.25;77.81;99875.84;2620830;46;20046;-66
2021/09/01 04:31:09;;;;;;;21.73;14.68;;;;;;;10.27;78.06;99871.22;2619884;47;20561;-66
2021/09/01 04:33:38;;;;;;;22.17;14.02;;;;;;;10.35;78.30;99876.50;2621239;54;20078;-66
2021/09/01 04:36:08;;;;;;;21.05;13.75;;;;;;;10.43;78.02;99876.50;2620598;54;20037;-65
2021/09/01 04:38:38;;;;;;;22.92;15.05;;;;;;;10.42;77.37;99882.78;2620035;47;20543;-67
2021/09/01 04:41:10;;;;;;;24.67;14.43;;;;;;;10.37;77.65;99880.66;2620269;54;20038;-66
2021/09/01 04:43:40;;;;;;;23.73;15.20;;;;;;;10.32;77.69;99879.47;2620736;54;20569;-67
2021/09/01 04:46:10;;;;;;;25.70;16.17;;;;;;;10.23;77.95;99885.72;2619864;54;20167;-66
2021/09/01 04:48:40;;;;;;;23.38;17.05;;;;;;;10.24;77.92;99884.72;2618099;47;20605;-66
2021/09/01 04:51:09;;;;;;;22.80;15.15;;;;;;;10.23;77.79;99878.59;2618472;47;20031;-65
2021/09/01 04:53:39;;;;;;;21.75;15.65;;;;;;;10.25;77.94;99884.59;2619168;54;20019;-66
2021/09/01 04:56:11;;;;;;;24.20;16.77;;;;;;;10.22;77.76;99876.97;2619852;54;20045;-66
2021/09/01 04:58:41;;;;;;;20.75;14.57;;;;;;;10.20;77.99;99872.81;2620207;39;20411;-66
2021/09/01 05:01:10;;;;;;;20.05;15.13;;;;;;;10.25;77.97;99878.50;2620521;54;20050;-66
2021/09/01 05:03:40;;;;;;;24.52;15.65;;;;;;;10.33;77.86;99873.22;2619074;54;20042;-66
2021/09/01 05:06:10;;;;;;;21.02;14.63;;;;;;;10.40;77.96;99877.66;2618719;54;20126;-66
2021/09/01 05:08:40;;;;;;;22.33;16.48;;;;;;;10.44;77.62;99872.84;2618326;39;20422;-67
2021/09/01 05:11:12;;;;;;;21.40;15.25;;;;;;;10.46;77.10;99878.00;2617916;54;20026;-67
2021/09/01 05:13:42;;;;;;;24.40;15.20;;;;;;;10.44;76.97;99877.31;2619452;39;20747;-66
2021/09/01 05:16:11;;;;;;;24.02;15.95;;;;;;;10.39;77.08;99876.00;2618937;54;20026;-67
2021/09/01 05:18:41;;;;;;;26.33;15.73;;;;;;;10.38;77.36;99873.53;2618206;54;20068;-67
2021/09/01 05:21:14;;;;;;;21.35;15.70;;;;;;;10.36;77.40;99867.56;2622174;39;20498;-66
2021/09/01 05:23:45;;;;;;;27.33;17.40;;;;;;;10.32;77.42;99877.66;2622577;54;20022;-67
2021/09/01 05:26:19;;;;;;;22.50;14.20;;;;;;;10.24;77.32;99884.72;2623363;54;20034;-66
2021/09/01 05:28:51;;;;;;;22.45;15.25;;;;;;;10.28;77.79;99883.44;2623105;47;20038;-72
2021/09/01 05:31:22;;;;;;;25.13;18.00;;;;;;;10.43;77.77;99884.44;2623489;54;20031;-66
2021/09/01 05:33:52;;;;;;;23.60;15.00;;;;;;;10.57;77.68;99883.78;2622999;46;20027;-66
2021/09/01 05:36:23;;;;;;;20.80;13.98;;;;;;;10.68;77.34;99889.72;2623773;54;20039;-65
2021/09/01 05:38:54;;;;;;;24.27;15.32;;;;;;;10.71;76.71;99884.91;2624292;46;20045;-67
2021/09/01 05:41:29;;;;;;;29.05;19.38;;;;;;;10.81;76.92;99887.38;2623059;54;20078;-67
2021/09/01 05:44:04;;;;;;;24.60;14.18;;;;;;;10.85;76.69;99884.22;2622898;54;20047;-66
2021/09/01 05:46:34;;;;;;;21.00;13.73;;;;;;;10.95;76.57;99896.47;2621670;47;20041;-65
2021/09/01 05:49:04;;;;;;;18.58;13.60;;;;;;;11.04;76.34;99898.09;2622368;54;20053;-66
2021/09/01 05:51:34;;;;;;;21.70;13.73;;;;;;;11.09;76.03;99899.22;2621012;54;20045;-65
2021/09/01 05:54:04;;;;;;;26.35;16.45;;;;;;;11.08;75.33;99899.41;2618632;54;20038;-66
2021/09/01 05:56:37;;;;;;;21.58;15.27;;;;;;;11.10;75.16;99897.41;2617602;54;20022;-66
2021/09/01 05:59:10;;;;;;;;;;;;;;;11.10;74.99;99905.34;2618893;54;20030;-66
2021/09/01 06:01:43;;;;;;;19.38;14.52;;;;;;;11.06;75.15;99904.88;2618507;46;20473;-66
2021/09/01 06:04:15;;;;;;;22.73;15.73;;;;;;;11.13;75.66;99908.47;2619245;54;20022;-66
2021/09/01 06:06:49;;;;;;;23.42;15.32;;;;;;;11.26;76.01;99902.66;2619003;39;20438;-66
2021/09/01 06:09:19;;;;;;;18.58;14.20;;;;;;;11.38;75.14;99903.94;2618495;47;20058;-65
2021/09/01 06:11:58;;;;;;;18.50;13.82;;;;;;;11.40;75.34;99907.25;2619025;39;20431;-65
2021/09/01 06:14:27;;;;;;;25.70;15.43;;;;;;;11.46;74.98;99900.44;2618768;54;20038;-66
2021/09/01 06:16:57;;;;;;;28.85;20.50;;;;;;;11.52;75.12;99907.72;2618144;54;20031;-66
2021/09/01 06:19:27;;;;;;;34.05;25.77;;;;;;;11.64;75.13;99918.75;2618733;39;20430;-65
2021/09/01 06:21:57;;;;;;;18.48;13.32;;;;;;;11.68;75.01;99914.78;2618929;39;20423;-66
2021/09/01 06:24:26;;;;;;;20.50;15.60;;;;;;;11.79;75.18;99905.59;2618232;54;20038;-65
2021/09/01 06:26:59;;;;;;;23.25;14.55;;;;;;;11.89;74.43;99915.03;2617515;54;20061;-66
2021/09/01 06:29:29;;;;;;;20.40;15.05;;;;;;;11.92;74.13;99913.84;2618595;39;20439;-66
2021/09/01 06:31:59;;;;;;;18.20;13.95;;;;;;;11.87;74.14;99922.31;2617998;47;20030;-66
2021/09/01 06:34:29;;;;;;;20.52;14.30;;;;;;;11.94;74.43;99917.13;2618404;54;20034;-66
2021/09/01 06:36:59;;;;;;;19.20;14.15;;;;;;;12.06;74.42;99920.22;2618095;54;20038;-66
2021/09/01 06:39:28;;;;;;;21.05;15.55;;;;;;;12.21;74.05;99923.78;2618161;54;20035;-66
2021/09/01 06:42:01;;;;;;;24.48;15.00;;;;;;;12.28;74.02;99919.41;2617627;54;20033;-66
2021/09/01 06:44:30;;;;;;;22.90;17.42;;;;;;;12.35;73.60;99917.69;2617978;54;20143;-66
2021/09/01 06:47:00;;;;;;;20.45;13.90;;;;;;;12.38;73.29;99909.41;2616938;54;20022;-67
2021/09/01 06:49:30;;;;;;;18.55;14.43;;;;;;;12.44;73.45;99917.66;2617447;54;20543;-67
2021/09/01 06:51:59;;;;;;;21.77;14.02;;;;;;;12.50;73.51;99917.78;2617639;47;20038;-67
2021/09/01 06:54:29;;;;;;;22.75;15.68;;;;;;;12.61;73.15;99922.66;2618034;54;20090;-67
2021/09/01 06:57:02;;;;;;;21.92;15.65;;;;;;;12.66;73.65;99916.81;2617658;54;20027;-66
2021/09/01 06:59:32;;;;;;;22.25;16.80;;;;;;;12.75;73.73;99918.38;2618538;54;20030;-66
2021/09/01 07:02:01;;;;;;;22.98;15.27;;;;;;;12.83;73.60;99925.47;2618759;54;20060;-67
2021/09/01 07:04:31;;;;;;;23.05;17.02;;;;;;;12.91;74.41;99928.03;2619015;54;20038;-67
2021/09/01 07:07:01;;;;;;;29.38;21.92;;;;;;;13.03;74.67;99925.78;2618331;54;20075;-66
2021/09/01 07:09:31;;;;;;;24.10;17.40;;;;;;;13.12;74.24;99925.50;2619112;54;20554;-67
2021/09/01 07:12:03;;;;;;;24.92;20.33;;;;;;;13.26;74.24;99923.06;2618629;54;20034;-66
2021/09/01 07:14:33;;;;;;;22.90;17.13;;;;;;;13.33;74.21;99929.28;2619429;54;20034;-67
2021/09/01 07:17:02;;;;;;;21.55;16.48;;;;;;;13.37;74.88;99931.41;2618797;39;20430;-67
2021/09/01 07:19:32;;;;;;;24.17;16.98;;;;;;;13.43;75.18;99929.88;2618446;54;20060;-66
2021/09/01 07:22:01;;;;;;;24.05;17.52;;;;;;;13.51;74.89;99935.09;2619155;46;20066;-65
2021/09/01 07:24:31;;;;;;;22.88;16.35;;;;;;;13.58;75.18;99937.81;2620710;39;20478;-68
2021/09/01 07:27:03;;;;;;;25.55;17.58;;;;;;;13.63;75.11;99927.44;2620176;39;20482;-68
2021/09/01 07:29:33;;;;;;;21.40;15.65;;;;;;;13.73;74.92;99938.63;2620370;54;20026;-68
2021/09/01 07:32:03;;;;;;;20.23;15.55;;;;;;;13.83;74.66;99935.66;2619610;54;20042;-68
2021/09/01 07:34:32;;;;;;;23.10;15.90;;;;;;;13.94;75.08;99937.03;2619918;54;20045;-68
2021/09/01 07:37:02;;;;;;;23.38;16.50;;;;;;;14.04;74.84;99938.41;2618613;54;20022;-67
2021/09/01 07:39:32;;;;;;;19.90;15.63;;;;;;;14.16;74.60;99948.53;2618946;54;20030;-67
2021/09/01 07:42:04;;;;;;;21.60;15.57;;;;;;;14.30;74.08;99945.81;2618841;54;20023;-68
2021/09/01 07:44:34;;;;;;;20.33;14.68;;;;;;;14.50;73.67;99939.91;2618494;54;20078;-70
2021/09/01 07:47:04;;;;;;;17.48;14.50;;;;;;;14.53;73.77;99945.69;2618686;54;20547;-69
2021/09/01 07:49:34;;;;;;;22.33;14.15;;;;;;;14.64;73.64;99944.34;2622648;39;20450;-68
2021/09/01 07:52:05;;;;;;;18.73;15.18;;;;;;;14.81;73.44;99948.38;2623834;54;20033;-68
2021/09/01 07:54:34;;;;;;;18.92;14.32;;;;;;;14.95;73.14;99941.34;2622248;51;20023;-68
2021/09/01 07:57:07;;;;;;;23.75;18.48;;;;;;;15.09;73.03;99940.41;2620640;54;20029;-68
2021/09/01 07:59:37;;;;;;;17.10;15.10;;;;;;;15.24;72.31;99937.63;2620749;54;20025;-68
2021/09/01 08:02:06;;;;;;;18.90;15.85;;;;;;;15.36;72.03;99946.72;2621418;54;20022;-68
2021/09/01 08:04:37;;;;;;;22.02;17.85;;;;;;;15.53;71.27;99949.91;2622386;47;20122;-68
2021/09/01 08:07:06;;;;;;;21.75;15.40;;;;;;;15.67;70.71;99958.81;2621893;54;20018;-68
2021/09/01 08:09:36;;;;;;;21.35;16.77;;;;;;;15.72;70.96;99953.72;2622280;54;20030;-68
2021/09/01 08:12:10;;;;;;;22.95;15.07;;;;;;;15.80;70.58;99958.91;2622788;54;20034;-68
2021/09/01 08:14:39;;;;;;;21.60;14.32;;;;;;;15.97;70.64;99951.38;2622993;54;20053;-67
2021/09/01 08:17:09;;;;;;;17.50;14.30;;;;;;;16.20;69.94;99961.69;2621182;54;20034;-68
2021/09/01 08:19:39;;;;;;;19.13;14.60;;;;;;;16.38;69.58;99961.13;2619654;47;20026;-68
2021/09/01 08:22:09;;;;;;;22.40;15.35;;;;;;;16.67;68.78;99959.94;2619773;46;20026;-69
2021/09/01 08:24:40;;;;;;;20.25;15.95;;;;;;;16.79;67.63;99957.53;2621057;54;20546;-68
2021/09/01 08:27:14;;;;;;;21.10;15.18;;;;;;;16.83;66.96;99958.75;2618770;54;20034;-68
2021/09/01 08:29:43;;;;;;;15.77;13.20;;;;;;;16.83;66.59;99956.09;2620484;54;20029;-68
2021/09/01 08:32:13;;;;;;;16.30;14.43;;;;;;;16.90;66.56;99954.25;2620234;54;20038;-66
2021/09/01 08:34:44;;;;;;;17.02;13.57;;;;;;;17.03;67.28;99956.09;2620554;54;20031;-67
2021/09/01 08:37:15;;;;;;;22.77;16.05;;;;;;;17.23;66.56;99953.41;2620475;54;20034;-69
2021/09/01 08:39:44;;;;;;;17.58;14.48;;;;;;;17.33;65.58;99949.25;2619708;54;20033;-68
2021/09/01 08:42:19;;;;;;;18.92;14.88;;;;;;;17.35;65.44;99946.41;2619481;47;20030;-67
2021/09/01 08:44:49;;;;;;;17.95;12.25;;;;;;;17.34;65.83;99948.22;2620312;54;20030;-66
2021/09/01 08:47:19;;;;;;;14.82;11.65;;;;;;;17.39;66.86;99950.28;2619145;54;20064;-66
2021/09/01 08:49:49;;;;;;;16.58;11.52;;;;;;;17.54;65.95;99950.84;2619330;54;20061;-67
2021/09/01 08:52:19;;;;;;;17.30;13.50;;;;;;;17.60;66.09;99945.72;2619143;54;20027;-67
2021/09/01 08:54:48;;;;;;;17.20;12.80;;;;;;;17.61;65.67;99958.88;2618983;54;20041;-67
2021/09/01 08:57:21;;;;;;;16.38;11.43;;;;;;;17.60;65.83;99954.56;2618166;54;20027;-67
2021/09/01 08:59:50;;;;;;;17.75;11.07;;;;;;;17.61;66.44;99955.38;2618705;54;20022;-67
2021/09/01 09:02:30;;;;;;;14.63;10.52;;;;;;;17.68;65.64;99957.00;2618553;54;20547;-67
2021/09/01 09:05:01;;;;;;;13.85;10.48;;;;;;;17.68;65.64;99957.00;2618863;54;20030;-67
2021/09/01 09:07:31;;;;;;;13.55;9.75;;;;;;;17.68;65.87;99967.69;2618461;54;20030;-68
2021/09/01 09:10:03;;;;;;;14.07;10.55;;;;;;;17.81;65.96;99953.50;2618964;54;20030;-67
2021/09/01 09:12:35;;;;;;;17.58;10.50;;;;;;;17.89;65.42;99953.25;2618345;47;20038;-67
2021/09/01 09:15:05;;;;;;;20.92;11.57;;;;;;;17.99;64.78;99948.25;2618070;47;20034;-67
2021/09/01 09:17:39;;;;;;;21.33;12.13;;;;;;;17.97;65.49;99941.50;2617614;49;20035;-67
2021/09/01 09:20:10;;;;;;;17.92;10.57;;;;;;;18.10;64.37;99945.94;2618712;54;20037;-69
2021/09/01 09:22:42;;;;;;;18.15;10.57;;;;;;;18.06;64.86;99938.34;2618119;39;20415;-68
2021/09/01 09:25:18;;;;;;;14.10;10.02;;;;;;;18.12;65.22;99943.88;2618517;54;20060;-68
2021/09/01 09:27:52;;;;;;;15.00;9.02;;;;;;;18.06;65.20;99945.56;2618188;54;20042;-68
2021/09/01 09:30:37;;;;;;;15.60;9.95;;;;;;;18.24;64.54;99942.16;2618144;47;20070;-68
2021/09/01 09:33:10;;;;;;;15.93;10.65;;;;;;;18.45;63.50;99936.50;2618610;54;20038;-68
2021/09/01 09:35:57;;;;;;;15.25;9.65;;;;;;;18.48;63.48;99932.53;2618627;54;20043;-68
2021/09/01 09:38:33;;;;;;;15.77;10.60;;;;;;;18.63;63.26;99934.91;2617870;31;20688;-68
2021/09/01 09:41:05;;;;;;;10.27;8.93;;;;;;;18.95;63.48;99938.41;2618001;47;20034;-68
2021/09/01 09:43:38;;;;;;;17.83;10.15;;;;;;;19.26;62.07;99934.78;2618710;54;20030;-68
2021/09/01 09:46:12;;;;;;;11.93;9.35;;;;;;;19.36;62.15;99935.13;2618491;54;20034;-68
2021/09/01 09:48:44;;;;;;;12.98;11.15;;;;;;;19.35;61.90;99935.31;2618154;54;20062;-68
2021/09/01 09:51:16;;;;;;;14.93;9.95;;;;;;;19.42;61.04;99928.84;2618679;54;20035;-68
2021/09/01 09:53:47;;;;;;;13.15;9.50;;;;;;;19.39;60.64;99933.81;2619138;54;20577;-66
2021/09/01 09:56:20;;;;;;;16.65;9.75;;;;;;;19.22;61.03;99926.38;2618830;54;20558;-66
2021/09/01 09:58:54;;;;;;;15.40;10.20;;;;;;;19.25;60.30;99925.94;2619516;39;20467;-67
2021/09/01 10:01:27;;;;;;;12.77;9.30;;;;;;;19.35;59.69;99929.97;2618592;54;20034;-68
2021/09/01 10:03:57;;;;;;;10.93;8.73;;;;;;;19.30;59.54;99931.44;2619266;39;20542;-66
2021/09/01 10:06:27;;;;;;;13.18;8.95;;;;;;;19.46;59.69;99930.03;2618323;54;20823;-67
2021/09/01 10:08:57;;;;;;;14.20;9.20;;;;;;;19.68;58.61;99929.66;2618989;54;20039;-69
2021/09/01 10:11:27;;;;;;;17.15;9.95;;;;;;;19.87;58.71;99923.19;2619217;54;20831;-67
2021/09/01 10:14:00;;;;;;;14.48;10.10;;;;;;;20.03;58.53;99921.75;2618821;54;20045;-66
2021/09/01 10:16:35;;;;;;;12.45;9.63;;;;;;;20.16;57.50;99913.50;2620158;54;20038;-66
2021/09/01 10:19:10;;;;;;;15.85;10.30;;;;;;;20.19;58.21;99914.94;2621034;54;20038;-67
2021/09/01 10:21:42;;;;;;;13.23;10.13;;;;;;;20.23;57.31;99919.59;2620989;54;20038;-66
2021/09/01 10:24:29;;;;;;;15.63;10.75;;;;;;;20.13;56.72;99916.66;2620816;54;20045;-67
2021/09/01 10:27:02;;;;;;;16.67;9.77;;;;;;;20.00;57.35;99917.69;2620112;47;20027;-67
2021/09/01 10:29:46;;;;;;;13.70;9.83;;;;;;;20.02;56.21;99914.75;2621327;54;20045;-66
2021/09/01 10:32:25;;;;;;;13.02;8.82;;;;;;;19.74;57.19;99918.81;2620707;39;20399;-67
2021/09/01 10:35:25;;;;;;;13.85;9.23;;;;;;;20.01;56.83;99915.81;2621156;54;20027;-67
2021/09/01 10:37:56;;;;;;;13.32;9.50;;;;;;;20.27;56.21;99922.66;2621294;39;20414;-67
2021/09/01 10:40:57;;;;;;;12.48;9.30;;;;;;;20.27;56.35;99920.78;2621399;39;20444;-67
2021/09/01 10:43:26;;;;;;;10.85;8.35;;;;;;;20.48;55.27;99922.16;2619623;39;20411;-67
2021/09/01 10:45:59;;;;;;;13.30;9.45;;;;;;;20.59;54.69;99903.63;2619567;54;20038;-65
2021/09/01 10:48:29;;;;;;;14.07;9.80;;;;;;;20.63;55.22;99904.81;2618304;51;20027;-67
2021/09/01 10:50:59;;;;;;;12.43;9.57;;;;;;;20.53;54.86;99900.81;2619782;54;20046;-67
2021/09/01 10:53:30;;;;;;;14.90;9.60;;;;;;;20.23;55.74;99906.19;2619131;39;20522;-67
2021/09/01 10:56:06;;;;;;;15.50;10.25;;;;;;;20.28;56.06;99900.13;2618840;47;20045;-67
2021/09/01 10:58:38;;;;;;;14.70;9.75;;;;;;;20.35;55.68;99900.03;2618545;54;20163;-67
2021/09/01 11:01:13;;;;;;;14.60;9.75;;;;;;;20.39;55.42;99898.53;2618865;54;20047;-67
2021/09/01 11:03:45;;;;;;;12.98;9.80;;;;;;;20.31;56.29;99890.81;2619395;54;20030;-66
2021/09/01 11:06:20;;;;;;;12.48;9.80;;;;;;;20.34;55.59;99899.22;2619426;54;20121;-66
2021/09/01 11:09:18;;;;;;;16.00;10.60;;;;;;;20.44;55.39;99895.97;2619546;54;20031;-67
2021/09/01 11:11:53;;;;;;;10.52;8.95;;;;;;;20.49;54.68;99891.59;2619791;39;20160;-67
2021/09/01 11:14:38;;;;;;;16.35;8.75;;;;;;;20.53;55.19;99895.44;2620291;39;20434;-68
2021/09/01 11:17:12;;;;;;;12.95;8.93;;;;;;;20.60;54.71;99889.13;2619910;47;20030;-67
2021/09/01 11:19:43;;;;;;;11.32;8.63;;;;;;;20.64;54.50;99891.13;2620688;54;20589;-67
2021/09/01 11:22:15;;;;;;;10.77;8.40;;;;;;;20.78;54.14;99889.06;2619386;54;20035;-67
2021/09/01 11:24:48;;;;;;;12.73;9.10;;;;;;;20.92;53.94;99882.38;2620303;47;20075;-67
2021/09/01 11:27:20;;;;;;;10.02;8.45;;;;;;;20.98;53.13;99877.94;2621068;54;20038;-67
2021/09/01 11:29:50;;;;;;;10.88;8.32;;;;;;;20.98;52.56;99884.16;2619398;54;20042;-66
2021/09/01 11:32:26;;;;;;;9.35;7.63;;;;;;;20.85;53.36;99875.47;2617630;47;20034;-67
2021/09/01 11:35:01;;;;;;;12.98;8.82;;;;;;;20.86;52.68;99866.38;2618132;54;20086;-67
2021/09/01 11:37:32;;;;;;;11.40;7.90;;;;;;;20.87;52.97;99871.53;2617945;54;20041;-65